Terminal Aerodrome Forecast
Issued by NWS Binghamton, NY

Home | Current Version | Previous Version | Text Only | Print | Product List | Glossary On
Versions: 1 2 3 4 5 6 7 8 9 10 11 12 13 14
847
FTUS41 KBGM 211733
TAFBGM
TAF
KBGM 211733Z 2118/2218 18011KT P6SM BKN200
     FM220300 19007KT P6SM -SHRA OVC040
     FM220700 19005KT P6SM OVC015
     FM221100 20005KT P6SM BKN020=

USA.gov is the U.S. government's official web portal to all federal, state and local government web resources and services.